createdAt,value
2019-02-03T01:09:28.472Z,1.90
2019-02-03T01:19:35.201Z,1.80
2019-02-03T01:22:55.540Z,1.80
2019-02-03T01:26:28.755Z,1.80
2019-02-03T01:29:53.576Z,1.80
2019-02-03T01:33:40.646Z,1.90
2019-02-03T01:37:10.750Z,1.80
2019-02-03T01:40:12.677Z,1.80
2019-02-03T01:43:31.604Z,1.90
2019-02-03T01:46:51.935Z,1.90
2019-02-03T01:49:38.623Z,2.00
2019-02-03T01:52:50.095Z,2.00
2019-02-03T01:55:41.567Z,2.00
2019-02-03T01:59:01.703Z,2.00
2019-02-03T02:01:48.265Z,2.00
2019-02-03T02:05:20.412Z,2.10
2019-02-03T02:09:09.217Z,2.10
2019-02-03T02:11:14.303Z,2.10
2019-02-03T02:17:15.833Z,2.00
2019-02-03T02:20:35.593Z,2.10
2019-02-03T02:23:19.902Z,2.10
2019-02-03T02:26:33.936Z,2.10
2019-02-03T02:30:02.714Z,2.10
2019-02-03T02:36:37.791Z,2.20
2019-02-03T02:40:22.975Z,2.10
2019-02-03T02:43:33.547Z,2.20
2019-02-03T02:46:52.445Z,2.20
2019-02-03T02:49:56.421Z,2.20
2019-02-03T02:52:56.988Z,2.30
2019-02-03T02:55:51.657Z,2.30
2019-02-03T03:02:15.323Z,2.40
2019-02-03T03:05:38.922Z,2.30
2019-02-03T03:15:22.476Z,2.30
2019-02-03T03:18:24.975Z,2.30
2019-02-03T03:21:21.718Z,2.30
2019-02-03T03:24:19.505Z,2.30
2019-02-03T03:27:06.378Z,2.30
2019-02-03T03:29:48.016Z,2.30
2019-02-03T03:32:38.401Z,2.20
2019-02-03T03:35:29.612Z,2.30
2019-02-03T03:38:16.841Z,2.30
2019-02-03T03:48:13.491Z,2.20
2019-02-03T03:50:56.666Z,2.10
2019-02-03T03:53:44.124Z,2.10
2019-02-03T03:56:57.889Z,2.30
2019-02-03T04:00:04.782Z,1.90
2019-02-03T04:02:48.431Z,1.80
2019-02-03T04:05:27.318Z,1.80
2019-02-03T04:08:06.088Z,1.80
2019-02-03T04:11:06.075Z,1.80
2019-02-03T04:14:21.744Z,1.80
2019-02-03T04:17:20.387Z,1.90
2019-02-03T04:20:01.477Z,1.80
2019-02-03T04:22:49.681Z,1.70
2019-02-03T04:26:05.429Z,1.70
2019-02-03T04:29:23.665Z,1.60
2019-02-03T04:32:01.785Z,1.60
2019-02-03T04:34:54.205Z,1.50
2019-02-03T04:37:47.915Z,1.40
2019-02-03T04:41:07.283Z,1.40
2019-02-03T04:44:13.240Z,1.40
2019-02-03T04:50:37.745Z,1.30
2019-02-03T04:56:43.435Z,1.40
2019-02-03T04:59:49.287Z,1.40
2019-02-03T05:05:55.081Z,1.60
2019-02-03T05:08:39.559Z,1.60
2019-02-03T05:11:43.437Z,1.70
2019-02-03T05:17:58.130Z,1.70
2019-02-03T05:20:58.815Z,2.10
2019-02-03T05:24:07.919Z,1.80
2019-02-03T05:27:18.094Z,1.80
2019-02-03T05:40:50.791Z,1.80
2019-02-03T05:43:47.016Z,1.80
2019-02-03T05:47:15.819Z,1.80
2019-02-03T05:51:11.745Z,1.70
2019-02-03T06:08:44.153Z,1.80
2019-02-03T06:11:46.349Z,1.80
2019-02-03T06:18:41.281Z,1.90
2019-02-03T06:22:08.463Z,1.80
2019-02-03T06:25:02.955Z,1.80
2019-02-03T06:28:00.983Z,1.80
2019-02-03T06:34:34.469Z,1.70
2019-02-03T06:37:28.446Z,1.60
2019-02-03T06:40:43.181Z,1.60
2019-02-03T06:43:58.137Z,1.60
2019-02-03T06:50:21.743Z,1.40
2019-02-03T06:56:56.661Z,1.30
2019-02-03T07:00:37.277Z,1.30
2019-02-03T07:03:18.795Z,1.30
2019-02-03T07:06:46.836Z,1.20
2019-02-03T07:09:40.687Z,1.20
2019-02-03T07:12:50.706Z,1.10
2019-02-03T07:15:43.959Z,1.10
2019-02-03T07:19:11.665Z,1.10
2019-02-03T07:25:53.586Z,1.10
2019-02-03T07:29:12.900Z,1.10
2019-02-03T07:32:21.230Z,1.10
2019-02-03T07:35:40.401Z,1.10
2019-02-03T07:38:27.978Z,1.50
2019-02-03T07:42:00.406Z,1.20
2019-02-03T07:45:40.543Z,1.30
2019-02-03T07:49:20.405Z,1.40
2019-02-03T07:52:29.722Z,1.40
2019-02-03T07:58:50.993Z,1.50
2019-02-03T08:02:19.151Z,1.60
2019-02-03T08:05:15.977Z,1.70
2019-02-03T08:08:25.547Z,1.80
2019-02-03T08:11:13.480Z,1.80
2019-02-03T08:14:18.791Z,1.90
2019-02-03T08:20:11.027Z,2.00
2019-02-03T08:23:47.190Z,2.10
2019-02-03T08:26:42.435Z,2.10
2019-02-03T08:33:12.117Z,2.60
2019-02-03T08:36:20.696Z,3.00
2019-02-03T08:39:33.232Z,3.20
2019-02-03T08:42:36.152Z,2.30
2019-02-03T08:42:55.704Z,3.30
2019-02-03T08:46:19.882Z,3.50
2019-02-03T08:49:30.356Z,3.60
2019-02-03T08:58:42.126Z,5.50
2019-02-03T09:02:00.936Z,6.30
2019-02-03T09:04:57.189Z,6.80
2019-02-03T09:11:59.123Z,8.10
2019-02-03T09:15:14.643Z,8.50
2019-02-03T09:18:08.629Z,8.70
2019-02-03T09:21:02.588Z,8.80
2019-02-03T09:24:34.631Z,8.90
2019-02-03T09:27:35.765Z,9.20
2019-02-03T09:30:50.215Z,9.40
2019-02-03T09:34:30.094Z,9.40
2019-02-03T09:40:47.639Z,9.30
2019-02-03T09:44:08.094Z,9.20
2019-02-03T09:47:34.831Z,8.80
2019-02-03T09:50:28.198Z,8.60
2019-02-03T09:53:23.553Z,8.50
2019-02-03T09:56:39.015Z,8.20
2019-02-03T10:00:08.422Z,8.30
2019-02-03T10:08:06.526Z,8.30
2019-02-03T10:19:39.268Z,8.10
2019-02-03T10:26:44.419Z,8.10
2019-02-03T10:37:52.152Z,8.50
2019-02-03T10:49:15.053Z,8.90
2019-02-03T10:59:59.076Z,8.70
2019-02-03T11:02:54.147Z,8.90
2019-02-03T11:06:20.339Z,9.20
2019-02-03T11:13:26.101Z,9.30
2019-02-03T11:42:26.921Z,10.20
2019-02-03T11:53:23.274Z,10.40
2019-02-03T12:01:38.971Z,9.80
2019-02-03T12:36:32.199Z,8.20
2019-02-03T12:43:35.103Z,8.00
2019-02-03T13:54:41.501Z,7.60
2019-02-03T14:38:58.402Z,7.50
2019-02-03T14:53:10.388Z,7.20
2019-02-03T14:59:06.229Z,7.20
2019-02-03T19:40:40.590Z,3.90
2019-02-03T19:52:01.403Z,3.70
2019-02-03T20:02:51.957Z,3.70
2019-02-03T20:22:22.158Z,3.70
2019-02-03T20:25:44.417Z,3.80
2019-02-03T20:31:29.760Z,3.90
2019-02-03T20:32:49.830Z,4.00
2019-02-03T21:02:44.948Z,3.70
2019-02-03T21:21:52.621Z,3.20
2019-02-03T21:33:14.907Z,3.50
2019-02-03T21:36:40.168Z,3.10
2019-02-03T21:40:21.834Z,3.10
2019-02-03T21:46:47.685Z,3.00
2019-02-03T21:49:48.923Z,3.00
2019-02-03T21:52:49.815Z,2.90
2019-02-03T21:55:45.515Z,2.90
2019-02-03T22:08:33.326Z,2.80
2019-02-03T22:19:27.757Z,2.70
2019-02-03T22:23:42.970Z,2.60
2019-02-03T22:25:53.694Z,2.60
2019-02-03T22:29:07.568Z,2.50
2019-02-03T22:32:08.884Z,2.50
2019-02-03T22:35:33.221Z,2.50
2019-02-03T22:38:31.657Z,2.50
2019-02-03T22:45:13.415Z,2.40
2019-02-03T22:52:09.955Z,2.30
2019-02-03T22:55:11.743Z,2.30
2019-02-03T23:01:38.798Z,2.30
2019-02-03T23:04:39.616Z,2.20
2019-02-03T23:07:51.207Z,2.20
2019-02-03T23:14:11.096Z,2.10
2019-02-03T23:17:01.288Z,2.10
2019-02-03T23:19:33.234Z,2.00
2019-02-03T23:22:21.464Z,2.10
2019-02-03T23:25:22.338Z,2.00
2019-02-03T23:28:10.828Z,2.00
2019-02-03T23:33:59.910Z,2.00
2019-02-03T23:36:57.462Z,2.00
2019-02-03T23:39:35.435Z,2.00
2019-02-03T23:46:01.458Z,2.00
2019-02-03T23:48:40.299Z,2.00
2019-02-03T23:51:16.800Z,1.90
2019-02-03T23:54:16.203Z,2.00
2019-02-03T23:56:58.468Z,1.90
